Time;durP1;ratioP1;P1;durP2;ratioP2;P2;SDS_P1;SDS_P2;PMS_P1;PMS_P2;Temp;Humidity;BMP_temperature;BMP_pressure;BME280_temperature;BME280_humidity;BME280_pressure;Samples;Min_cycle;Max_cycle;Signal;HPM_P1;HPM_P2
2022/10/11 04:03:45;;;;;;;6.20;3.15;;;;;;;13.13;65.22;102007.63;5065934;28;20387;-82
2022/10/11 04:06:10;;;;;;;8.63;4.15;;;;;;;13.17;65.17;101994.50;5048709;28;20072;-82
2022/10/11 04:08:36;;;;;;;6.78;3.92;;;;;;;13.33;65.44;101992.16;5032268;28;20029;-80
2022/10/11 04:11:01;;;;;;;7.28;4.03;;;;;;;13.61;64.93;102011.91;5067618;28;20037;-85
2022/10/11 04:13:27;;;;;;;9.55;4.57;;;;;;;13.66;64.37;101992.59;5039593;28;20471;-84
2022/10/11 04:15:52;;;;;;;7.70;4.68;;;;;;;13.55;64.68;101957.53;5039933;28;20029;-84
2022/10/11 04:18:18;;;;;;;12.57;4.80;;;;;;;13.91;64.09;101991.59;5063070;28;20029;-86
2022/10/11 04:20:44;;;;;;;25.42;9.75;;;;;;;13.93;64.16;101981.97;5061618;28;20037;-84
2022/10/11 04:23:09;;;;;;;7.97;4.20;;;;;;;13.98;63.96;101985.25;5081485;28;20021;-83
2022/10/11 04:25:37;;;;;;;7.32;4.45;;;;;;;13.96;62.52;101969.69;5029960;28;20101;-89
2022/10/11 04:28:03;;;;;;;7.75;4.32;;;;;;;13.86;62.28;101970.13;5063861;28;20043;-91
2022/10/11 04:30:28;;;;;;;8.80;4.38;;;;;;;14.13;62.13;101996.75;5046300;28;20026;-90
2022/10/11 04:32:54;;;;;;;9.38;4.47;;;;;;;14.09;61.92;101979.59;5045363;28;20083;-93
2022/10/11 04:35:19;;;;;;;7.80;4.22;;;;;;;14.00;61.66;101966.06;5030092;28;20032;-90
2022/10/11 04:37:45;;;;;;;10.02;4.43;;;;;;;14.20;61.71;101993.00;5059145;28;20402;-90
2022/10/11 04:40:11;;;;;;;9.38;4.55;;;;;;;14.16;61.68;101992.28;5049137;28;20036;-89
2022/10/11 04:42:36;;;;;;;10.93;5.65;;;;;;;14.10;62.06;101983.88;5033011;28;20021;-86
2022/10/11 04:45:02;;;;;;;8.40;5.28;;;;;;;14.15;61.54;101994.94;5047798;28;20032;-85
2022/10/11 04:47:27;;;;;;;12.18;4.57;;;;;;;14.01;61.58;101980.75;5065085;28;20039;-89
2022/10/11 04:49:53;;;;;;;9.77;3.95;;;;;;;14.09;61.62;101988.25;5032289;28;20082;-92
2022/10/11 04:52:18;;;;;;;5.90;3.35;;;;;;;14.02;61.80;101977.22;5051680;28;20078;-83
2022/10/11 04:54:44;;;;;;;22.48;10.18;;;;;;;14.13;61.85;102000.19;5065968;28;20498;-90
2022/10/11 04:57:09;;;;;;;14.05;5.28;;;;;;;14.12;62.30;101995.06;5052027;28;20037;-89
2022/10/11 04:59:35;;;;;;;7.53;3.95;;;;;;;14.07;61.96;101988.31;5069791;28;20032;-91
2022/10/11 05:02:01;;;;;;;12.35;5.18;;;;;;;14.18;62.49;102002.63;5071030;28;20045;-91
2022/10/11 05:04:27;;;;;;;14.60;5.25;;;;;;;14.06;62.86;101996.19;5067081;28;20067;-89
2022/10/11 05:06:52;;;;;;;11.30;5.28;;;;;;;14.04;62.29;101998.81;5049149;28;20128;-90
2022/10/11 05:09:18;;;;;;;27.75;5.28;;;;;;;14.03;61.34;101985.88;5050068;28;20043;-85
2022/10/11 05:11:43;;;;;;;11.30;3.97;;;;;;;14.14;61.26;102003.66;5084044;28;20132;-92
2022/10/11 05:14:09;;;;;;;8.52;4.82;;;;;;;13.95;61.83;101961.94;5026627;28;20040;-82
2022/10/11 05:16:34;;;;;;;16.10;5.80;;;;;;;14.23;62.04;101993.69;5052246;28;20028;-82
2022/10/11 05:19:00;;;;;;;14.35;6.20;;;;;;;14.26;62.15;101979.72;5051310;28;20170;-87
2022/10/11 05:21:26;;;;;;;16.17;6.63;;;;;;;14.07;62.28;101949.28;5075912;23;20041;-92
2022/10/11 05:23:52;;;;;;;17.73;5.20;;;;;;;14.20;61.88;101972.16;5004447;28;20041;-87
2022/10/11 05:26:18;;;;;;;9.93;5.15;;;;;;;14.33;61.71;101976.78;5010876;28;20026;-88
2022/10/11 05:28:44;;;;;;;23.40;6.10;;;;;;;14.14;61.68;101931.63;5016436;28;20026;-93
2022/10/11 05:31:12;;;;;;;13.75;7.35;;;;;;;14.40;61.78;101973.91;5013158;28;20031;-96
2022/10/11 05:33:37;;;;;;;16.10;4.80;;;;;;;14.38;61.00;101983.56;5016461;28;20033;-94
2022/10/11 05:36:03;;;;;;;10.27;5.25;;;;;;;14.39;61.08;101987.84;5032454;28;20026;-87
2022/10/11 05:38:29;;;;;;;9.13;4.55;;;;;;;14.42;60.70;101998.13;4994750;28;20025;-90
2022/10/11 05:40:58;;;;;;;10.75;4.72;;;;;;;14.29;60.64;101982.19;5011378;28;20034;-88
2022/10/11 05:43:24;;;;;;;11.60;4.57;;;;;;;14.34;60.90;102012.31;5011062;28;20041;-94
2022/10/11 05:45:49;;;;;;;18.10;6.50;;;;;;;14.30;60.96;102005.53;5007584;28;20034;-92
2022/10/11 05:48:15;;;;;;;9.45;5.15;;;;;;;14.39;61.09;102013.88;4996471;28;20084;-83
2022/10/11 05:50:40;;;;;;;15.00;6.43;;;;;;;14.48;60.78;102003.94;5012378;28;20045;-95
2022/10/11 05:53:06;;;;;;;20.00;8.23;;;;;;;14.58;60.48;102015.66;5014977;28;20065;-85
2022/10/11 05:55:39;;;;;;;18.80;6.55;;;;;;;14.50;60.96;102007.31;5032819;28;20029;-89
2022/10/11 05:58:07;;;;;;;11.80;5.38;;;;;;;14.56;60.66;102016.66;5016466;28;20018;-89
2022/10/11 06:00:35;;;;;;;19.15;4.97;;;;;;;14.61;61.04;102022.47;5019897;28;20034;-93
2022/10/11 06:03:01;;;;;;;18.90;6.00;;;;;;;14.59;60.89;102022.56;5023349;28;20040;-91
2022/10/11 06:05:26;;;;;;;7.60;4.45;;;;;;;14.47;61.66;102006.63;5020398;28;20018;-87
2022/10/11 06:07:52;;;;;;;7.22;4.30;;;;;;;14.63;61.44;102018.06;5005290;28;20034;-92
2022/10/11 06:10:17;;;;;;;13.25;6.28;;;;;;;14.82;60.62;102025.91;5011450;28;20041;-89
2022/10/11 06:12:46;;;;;;;9.60;5.32;;;;;;;14.85;60.84;102028.41;5011626;28;20033;-92
2022/10/11 06:15:11;;;;;;;17.85;6.50;;;;;;;14.89;60.20;102016.91;4982642;28;20034;-91
2022/10/11 06:17:37;;;;;;;12.05;6.22;;;;;;;14.76;60.19;101987.13;5014518;28;20049;-89
2022/10/11 06:20:03;;;;;;;16.67;5.65;;;;;;;15.00;60.41;102006.84;5013581;28;20080;-92
2022/10/11 06:22:28;;;;;;;12.05;6.65;;;;;;;15.01;60.08;102013.75;5025756;28;20526;-81
2022/10/11 06:24:54;;;;;;;16.48;6.65;;;;;;;15.02;59.79;102015.44;5008049;28;20034;-85
2022/10/11 06:27:19;;;;;;;7.93;5.22;;;;;;;15.06;60.26;102008.34;4994103;28;20041;-80
2022/10/11 06:29:45;;;;;;;9.70;5.93;;;;;;;15.21;59.77;102025.84;5008212;28;20025;-81
2022/10/11 06:32:12;;;;;;;11.07;5.72;;;;;;;15.13;59.46;102005.34;4994374;28;20434;-83
2022/10/11 06:34:37;;;;;;;9.65;4.53;;;;;;;15.36;59.42;102030.38;5022264;28;20491;-90
2022/10/11 06:37:03;;;;;;;11.55;4.47;;;;;;;15.35;59.01;102007.00;5027674;28;20018;-84
2022/10/11 06:39:28;;;;;;;8.65;5.00;;;;;;;15.53;58.89;102028.72;4993595;28;20034;-92
2022/10/11 06:41:54;;;;;;;7.95;4.57;;;;;;;15.55;58.72;102025.16;4993647;28;20076;-93
2022/10/11 06:44:19;;;;;;;15.77;3.65;;;;;;;15.50;57.81;102016.69;4993719;28;20042;-84
2022/10/11 06:46:45;;;;;;;7.20;4.00;;;;;;;15.48;57.84;102023.75;4992107;28;20476;-89
2022/10/11 06:49:10;;;;;;;18.63;9.00;;;;;;;15.52;58.15;102030.47;4994012;28;20380;-89
2022/10/11 06:51:36;;;;;;;17.85;8.98;;;;;;;15.50;58.50;102021.91;5008637;28;20519;-86
2022/10/11 06:54:02;;;;;;;27.30;12.45;;;;;;;15.65;58.13;102030.81;5010349;28;20033;-80
2022/10/11 06:56:28;;;;;;;17.92;8.98;;;;;;;15.76;57.60;102034.56;5011441;28;20538;-84
2022/10/11 06:58:54;;;;;;;9.57;5.00;;;;;;;15.67;58.08;102014.16;5011636;28;20109;-86
2022/10/11 07:01:22;;;;;;;10.77;3.97;;;;;;;15.86;56.88;102036.75;5010604;28;20032;-87
2022/10/11 07:03:48;;;;;;;7.18;3.60;;;;;;;15.95;56.88;102033.69;5023282;28;20077;-91
2022/10/11 07:06:16;;;;;;;11.48;5.35;;;;;;;15.69;57.38;101996.66;5039239;28;20417;-85
2022/10/11 07:08:41;;;;;;;6.57;4.30;;;;;;;15.94;57.17;102011.97;5010036;28;20030;-80
2022/10/11 07:11:09;;;;;;;7.70;3.03;;;;;;;15.90;55.92;102009.56;5009791;28;20049;-82
2022/10/11 07:13:35;;;;;;;12.00;5.28;;;;;;;16.09;56.36;102026.00;5010081;28;20030;-86
2022/10/11 07:16:08;;;;;;;5.78;3.05;;;;;;;16.19;55.88;102037.69;5003909;28;20032;-90
2022/10/11 07:18:34;;;;;;;5.13;3.05;;;;;;;16.23;56.04;102033.16;4993016;28;20060;-90
2022/10/11 07:21:04;;;;;;;5.50;3.20;;;;;;;16.08;55.30;102013.88;4974344;28;20144;-83
2022/10/11 07:23:29;;;;;;;6.72;3.42;;;;;;;16.12;55.91;102014.56;4973668;28;20168;-81
2022/10/11 07:25:55;;;;;;;6.97;4.07;;;;;;;16.23;54.88;102028.78;4974555;28;20100;-82
2022/10/11 07:28:21;;;;;;;10.40;3.92;;;;;;;16.30;54.89;102035.38;4972450;28;20041;-81
2022/10/11 07:30:46;;;;;;;4.72;2.35;;;;;;;16.35;52.94;102036.00;4989818;28;20041;-81
2022/10/11 07:33:12;;;;;;;16.67;3.03;;;;;;;16.27;52.38;102024.25;4973725;28;20030;-82
2022/10/11 07:35:37;;;;;;;12.93;4.70;;;;;;;16.36;53.04;102034.22;4990067;28;20022;-84
2022/10/11 07:38:04;;;;;;;6.85;3.63;;;;;;;16.49;53.10;102050.09;4975197;28;20026;-91
2022/10/11 07:40:30;;;;;;;8.27;3.78;;;;;;;16.51;52.97;102046.50;5008491;28;20061;-93
2022/10/11 07:42:56;;;;;;;7.90;3.55;;;;;;;16.38;53.13;102011.47;5029636;28;20099;-89
2022/10/11 07:45:27;;;;;;;7.53;3.97;;;;;;;16.60;52.61;102037.34;5016220;28;20182;-88
2022/10/11 07:47:56;;;;;;;6.72;3.95;;;;;;;16.70;52.30;102043.81;4982308;28;20030;-89
2022/10/11 07:50:22;;;;;;;7.80;3.38;;;;;;;16.54;52.21;102022.84;4993711;28;20121;-87
2022/10/11 07:52:47;;;;;;;8.57;3.08;;;;;;;16.65;52.26;102037.97;4994925;28;20030;-90
2022/10/11 07:55:13;;;;;;;7.07;3.53;;;;;;;16.64;51.74;102021.44;5008902;28;20527;-87
2022/10/11 07:57:38;;;;;;;8.05;3.42;;;;;;;16.60;51.26;102003.38;4999033;28;20165;-84
2022/10/11 08:00:04;;;;;;;7.78;3.08;;;;;;;16.84;50.77;102038.72;4990199;28;20022;-84
2022/10/11 08:02:30;;;;;;;9.55;3.47;;;;;;;16.84;50.15;102030.88;4974445;28;20093;-94
2022/10/11 08:04:56;;;;;;;6.68;3.47;;;;;;;16.91;50.76;102047.94;4974156;28;20030;-83
2022/10/11 08:07:21;;;;;;;6.18;3.47;;;;;;;17.04;50.93;102048.13;5022522;28;20036;-94
2022/10/11 08:09:46;;;;;;;7.13;3.03;;;;;;;17.06;51.03;102048.03;5029302;28;20040;-85
2022/10/11 08:12:12;;;;;;;7.28;3.75;;;;;;;17.07;50.61;102037.47;5029971;28;20033;-82
2022/10/11 08:14:40;;;;;;;7.45;3.30;;;;;;;17.10;50.37;102047.75;5011515;28;20042;-83
2022/10/11 08:17:06;;;;;;;21.80;9.32;;;;;;;17.03;50.71;102028.13;4973516;28;20081;-89
2022/10/11 08:19:31;;;;;;;6.80;3.00;;;;;;;17.23;49.79;102047.97;4999263;28;20498;-82
2022/10/11 08:21:57;;;;;;;6.70;3.90;;;;;;;17.21;49.81;102034.13;5033789;28;20057;-88
2022/10/11 08:24:23;;;;;;;7.50;3.35;;;;;;;17.21;50.28;102036.75;4998130;28;20446;-80
2022/10/11 08:26:49;;;;;;;6.88;3.83;;;;;;;16.96;50.82;101999.78;5002783;28;20041;-86
2022/10/11 08:29:14;;;;;;;6.00;3.08;;;;;;;17.16;50.97;102013.44;5008430;28;20034;-84
2022/10/11 08:31:40;;;;;;;6.47;3.75;;;;;;;17.15;49.99;102010.94;5008941;28;20030;-86
2022/10/11 08:34:05;;;;;;;9.40;3.65;;;;;;;17.41;51.73;102051.34;5008583;28;20068;-92
2022/10/11 08:36:31;;;;;;;15.05;4.47;;;;;;;17.41;49.47;102035.66;5010216;28;20053;-86
2022/10/11 08:38:57;;;;;;;10.48;4.82;;;;;;;17.41;50.02;102046.97;5001873;28;20439;-84
2022/10/11 08:41:27;;;;;;;7.05;4.53;;;;;;;17.44;50.20;102046.78;4981682;28;20121;-93
2022/10/11 08:44:10;;;;;;;9.25;4.30;;;;;;;17.41;50.12;102052.19;5004687;28;20037;-83
2022/10/11 08:46:37;;;;;;;16.75;3.90;;;;;;;17.41;50.31;102046.97;5008868;28;20354;-90
2022/10/11 08:49:03;;;;;;;17.85;6.70;;;;;;;17.42;52.46;102035.56;4972202;28;20499;-82
2022/10/11 08:51:31;;;;;;;13.82;5.32;;;;;;;17.58;49.69;102021.63;5012612;28;20030;-88
2022/10/11 08:54:15;;;;;;;8.48;4.00;;;;;;;17.53;49.57;102037.59;4995790;28;20058;-89
2022/10/11 08:56:42;;;;;;;9.20;4.80;;;;;;;17.40;50.11;102019.13;5012315;28;20495;-86
2022/10/11 08:59:10;;;;;;;9.57;4.10;;;;;;;17.54;50.10;102035.81;4998708;28;20038;-88
2022/10/11 09:01:36;;;;;;;6.40;3.70;;;;;;;17.35;51.30;102010.66;5001410;28;20044;-84
2022/10/11 09:04:02;;;;;;;7.35;4.10;;;;;;;17.54;50.26;102020.97;5001830;28;20053;-91
2022/10/11 09:06:34;;;;;;;7.78;4.95;;;;;;;17.59;49.72;102039.00;5023446;28;20095;-94
2022/10/11 09:09:48;;;;;;;10.52;4.43;;;;;;;17.60;50.00;102032.84;5005023;28;20034;-88
2022/10/11 09:12:32;;;;;;;14.50;4.85;;;;;;;17.57;50.42;102015.53;4992869;28;20087;-91
2022/10/11 09:15:39;;;;;;;10.10;4.75;;;;;;;17.49;49.74;102012.50;5022238;28;20034;-91
2022/10/11 09:18:23;;;;;;;10.10;4.97;;;;;;;17.59;49.42;102024.16;5006923;28;20057;-92
2022/10/11 09:20:56;;;;;;;9.70;4.35;;;;;;;17.47;50.29;102030.06;5014730;28;20096;-87
2022/10/11 09:23:34;;;;;;;9.70;4.15;;;;;;;17.62;49.86;102023.16;5029186;28;20026;-86
2022/10/11 09:26:06;;;;;;;9.68;4.97;;;;;;;17.54;49.97;102012.28;5047887;28;20061;-86
2022/10/11 09:28:53;;;;;;;13.55;4.95;;;;;;;17.60;50.68;102017.13;5023386;28;20041;-83
2022/10/11 09:31:20;;;;;;;10.70;4.95;;;;;;;17.60;49.56;102017.13;4995765;28;20537;-85
2022/10/11 09:33:47;;;;;;;13.85;5.10;;;;;;;17.42;49.79;102008.56;5011586;28;20026;-84
2022/10/11 09:36:27;;;;;;;15.30;5.47;;;;;;;17.46;50.17;102018.75;5012022;28;20033;-90
2022/10/11 09:39:03;;;;;;;11.93;4.95;;;;;;;17.49;50.36;102023.81;5011261;28;20380;-86
2022/10/11 09:41:37;;;;;;;11.68;5.22;;;;;;;17.57;50.55;102026.00;5027086;28;20430;-93
2022/10/11 09:44:04;;;;;;;10.98;4.93;;;;;;;17.62;50.65;102023.16;5011078;28;20065;-94
2022/10/11 09:46:33;;;;;;;9.30;4.78;;;;;;;17.69;50.32;102019.22;5011900;28;20105;-85
2022/10/11 09:48:58;;;;;;;9.80;4.82;;;;;;;17.80;49.91;102024.75;5012394;28;20065;-90
2022/10/11 09:51:25;;;;;;;12.02;5.53;;;;;;;17.75;50.10;102011.91;5009137;28;20555;-89
2022/10/11 09:53:54;;;;;;;13.80;5.97;;;;;;;17.86;49.86;102027.00;5010358;28;20195;-91
2022/10/11 09:56:21;;;;;;;18.77;5.97;;;;;;;17.94;50.29;102035.28;5027629;28;20026;-84
2022/10/11 09:58:46;;;;;;;10.00;4.85;;;;;;;18.07;49.53;102032.78;4977519;28;20196;-93
2022/10/11 10:01:21;;;;;;;11.50;5.18;;;;;;;18.03;49.16;102019.03;5024486;28;20486;-89
2022/10/11 10:03:47;;;;;;;10.80;5.57;;;;;;;18.04;48.91;102012.84;5018319;28;20026;-88
2022/10/11 10:06:23;;;;;;;14.05;6.03;;;;;;;18.05;48.88;102024.19;4999475;28;20037;-85
2022/10/11 10:08:49;;;;;;;11.75;5.72;;;;;;;18.12;48.83;102019.44;5011749;28;20109;-94
2022/10/11 10:11:15;;;;;;;11.65;6.28;;;;;;;18.00;49.51;102000.91;4994240;28;20032;-85
2022/10/11 10:13:46;;;;;;;12.73;5.93;;;;;;;18.05;49.38;102009.31;5010668;28;20041;-88
2022/10/11 10:16:25;;;;;;;16.60;5.35;;;;;;;18.09;49.26;102012.56;4993368;28;20034;-86
2022/10/11 10:18:54;;;;;;;19.80;6.63;;;;;;;18.12;49.42;102016.81;4989550;28;20049;-83
2022/10/11 10:21:26;;;;;;;13.40;6.63;;;;;;;18.10;49.40;102008.22;5008868;28;20516;-91
2022/10/11 10:23:54;;;;;;;16.85;6.65;;;;;;;18.19;49.88;102007.66;4987857;28;20045;-90
2022/10/11 10:26:21;;;;;;;10.90;5.85;;;;;;;18.17;49.90;101999.88;4989203;28;20037;-89
2022/10/11 10:29:08;;;;;;;19.38;5.93;;;;;;;18.28;49.92;102010.56;5003740;28;20044;-92
2022/10/11 10:31:49;;;;;;;13.45;5.93;;;;;;;18.34;49.93;102001.50;5021576;28;20030;-88
2022/10/11 10:34:20;;;;;;;9.40;4.93;;;;;;;18.46;49.24;102005.16;5005668;28;20031;-91
2022/10/11 10:36:48;;;;;;;10.93;5.65;;;;;;;18.48;49.50;101998.06;4989207;28;20037;-90
2022/10/11 10:39:27;;;;;;;15.73;5.82;;;;;;;18.50;48.86;101981.31;5004763;28;20554;-92
2022/10/11 10:41:54;;;;;;;10.82;6.05;;;;;;;18.62;48.80;101987.59;4972282;28;20033;-89
2022/10/11 10:44:19;;;;;;;11.80;5.88;;;;;;;18.66;48.05;101986.47;4987957;28;20038;-92
2022/10/11 10:47:00;;;;;;;15.32;6.10;;;;;;;18.61;48.11;101984.13;4988574;28;20030;-88
2022/10/11 10:49:48;;;;;;;12.35;5.93;;;;;;;18.61;48.03;101984.13;5008875;28;20037;-88
2022/10/11 10:52:29;;;;;;;19.05;5.85;;;;;;;18.52;48.69;101992.53;5022184;28;20038;-91
2022/10/11 10:54:54;;;;;;;12.95;5.97;;;;;;;18.57;49.29;101990.47;5018716;28;20503;-93
2022/10/11 10:57:45;;;;;;;11.05;5.40;;;;;;;18.74;48.29;101983.41;5007163;28;20041;-89
2022/10/11 11:00:21;;;;;;;31.45;14.80;;;;;;;18.41;48.12;101955.69;5016699;28;20030;-93
2022/10/11 11:02:59;;;;;;;67.15;26.88;;;;;;;18.53;48.19;101969.81;4987411;28;20104;-86
2022/10/11 11:05:38;;;;;;;77.68;30.13;;;;;;;18.64;48.57;101975.22;5005103;28;20080;-86
2022/10/11 11:08:41;;;;;;;54.88;22.00;;;;;;;18.74;48.83;101976.38;5012417;28;20095;-87
2022/10/11 11:11:22;;;;;;;;;;;;;;;18.79;48.13;101974.31;5008348;28;20137;-91
2022/10/11 11:14:22;;;;;;;31.50;12.13;;;;;;;18.62;48.33;101964.84;5007776;28;19917;-92
2022/10/11 11:16:52;;;;;;;374.45;138.50;;;;;;;18.67;48.40;101977.69;4989162;28;20069;-87
2022/10/11 11:19:41;;;;;;;14.00;6.18;;;;;;;18.58;48.48;101976.47;5005644;28;20033;-82
2022/10/11 11:22:18;;;;;;;11.05;5.15;;;;;;;18.66;48.11;101969.91;5004544;28;20100;-83
2022/10/11 11:24:59;;;;;;;10.57;5.07;;;;;;;18.69;48.81;101975.00;5010296;28;20434;-83
2022/10/11 11:27:30;;;;;;;12.38;5.90;;;;;;;18.74;48.37;101968.50;5006851;28;20038;-86
2022/10/11 11:30:01;;;;;;;12.05;5.35;;;;;;;18.78;48.38;101964.78;5008826;28;20026;-87
2022/10/11 11:32:42;;;;;;;16.80;5.38;;;;;;;18.74;49.03;101957.19;5006860;28;20109;-87
2022/10/11 11:35:20;;;;;;;11.38;5.32;;;;;;;18.74;49.02;101962.44;5022789;28;20033;-95
2022/10/11 11:37:45;;;;;;;10.45;5.18;;;;;;;18.81;48.40;101969.81;5031009;28;20032;-89
2022/10/11 11:40:18;;;;;;;14.73;5.28;;;;;;;18.74;47.86;101951.94;5028415;28;20168;-86
2022/10/11 11:42:50;;;;;;;14.43;6.07;;;;;;;18.83;48.45;101964.47;5026491;28;20048;-86
2022/10/11 11:45:32;;;;;;;12.10;5.25;;;;;;;18.60;48.87;101930.03;5046185;28;20021;-85
2022/10/11 11:48:02;;;;;;;11.77;5.17;;;;;;;18.74;48.50;101942.28;5010793;28;20029;-88
2022/10/11 11:50:33;;;;;;;11.45;5.32;;;;;;;18.84;48.12;101947.81;5009672;28;20260;-85
2022/10/11 11:53:03;;;;;;;10.40;5.22;;;;;;;18.87;48.39;101958.94;5010470;28;20056;-83
2022/10/11 11:55:52;;;;;;;14.25;5.80;;;;;;;18.87;47.99;101950.22;5027727;28;20030;-85
2022/10/11 11:58:45;;;;;;;9.57;5.28;;;;;;;18.96;48.75;101960.13;5029785;28;20099;-85
2022/10/11 12:01:22;;;;;;;14.23;5.00;;;;;;;18.91;48.73;101941.25;5029301;28;20419;-87
2022/10/11 12:03:50;;;;;;;14.27;6.45;;;;;;;18.98;48.72;101953.03;5018761;28;20053;-95
2022/10/11 12:06:23;;;;;;;33.85;13.25;;;;;;;18.77;49.03;101930.78;5008672;28;20022;-86
2022/10/11 12:09:04;;;;;;;28.52;12.27;;;;;;;18.94;48.58;101954.16;5007854;28;20058;-84
2022/10/11 12:11:38;;;;;;;11.73;5.93;;;;;;;18.91;48.10;101956.97;4994401;28;20034;-84
2022/10/11 12:14:33;;;;;;;9.55;4.63;;;;;;;18.90;48.06;101956.13;5028063;28;20026;-85
2022/10/11 12:17:09;;;;;;;28.90;14.70;;;;;;;18.73;48.02;101945.00;5009496;28;20045;-85
2022/10/11 12:19:36;;;;;;;18.15;7.32;;;;;;;18.70;48.42;101935.56;5007952;28;20028;-88
2022/10/11 12:22:25;;;;;;;18.38;9.20;;;;;;;18.82;49.03;101928.72;5007584;28;20054;-87
2022/10/11 12:25:01;;;;;;;16.23;7.00;;;;;;;18.80;48.39;101927.97;5011635;28;20026;-89
2022/10/11 12:27:42;;;;;;;10.93;5.85;;;;;;;18.88;48.12;101930.97;5027999;28;20501;-89
2022/10/11 12:30:49;;;;;;;15.00;5.68;;;;;;;18.91;48.34;101939.47;5029797;28;20480;-88
2022/10/11 12:33:45;;;;;;;11.48;4.85;;;;;;;18.86;48.08;101931.03;5011372;28;20029;-94
2022/10/11 12:36:22;;;;;;;10.13;5.60;;;;;;;18.84;48.10;101934.69;5013869;28;20030;-88
2022/10/11 12:39:19;;;;;;;10.40;5.13;;;;;;;18.76;48.34;101926.47;5013175;28;20034;-86
2022/10/11 12:44:19;;;;;;;8.68;4.45;;;;;;;18.79;48.32;101926.28;5012914;28;20029;-88
2022/10/11 12:46:54;;;;;;;15.05;5.38;;;;;;;18.81;48.17;101932.28;5012452;28;20034;-86
2022/10/11 12:49:41;;;;;;;10.35;5.15;;;;;;;18.81;47.91;101932.28;5013923;28;20110;-85
2022/10/11 12:52:15;;;;;;;9.90;5.35;;;;;;;18.78;48.43;101921.97;5014069;28;20034;-81
2022/10/11 12:54:59;;;;;;;14.90;5.55;;;;;;;18.80;48.49;101925.34;5013291;28;20033;-81
2022/10/11 12:57:43;;;;;;;11.50;4.90;;;;;;;18.81;48.37;101916.53;5008991;28;20112;-87
2022/10/11 13:00:27;;;;;;;14.27;5.25;;;;;;;18.80;48.29;101920.09;5013611;28;20030;-84
